sensor_id;sensor_type;location;lat;lon;timestamp;pressure;altitude;pressure_sealevel;temperature;humidity
56821;BME280;42702;50.178;20.992;2022-12-29T00:01:08;99447.52;;;2.49;66.76
56821;BME280;42702;50.178;20.992;2022-12-29T00:03:37;99444.68;;;2.46;66.92
56821;BME280;42702;50.178;20.992;2022-12-29T00:06:05;99444.12;;;2.44;66.46
56821;BME280;42702;50.178;20.992;2022-12-29T00:08:33;99440.50;;;2.43;66.44
56821;BME280;42702;50.178;20.992;2022-12-29T00:11:14;99444.63;;;2.44;66.52
56821;BME280;42702;50.178;20.992;2022-12-29T00:13:43;99438.87;;;2.41;66.67
56821;BME280;42702;50.178;20.992;2022-12-29T00:16:30;99433.15;;;2.40;66.39
56821;BME280;42702;50.178;20.992;2022-12-29T00:18:59;99429.31;;;2.38;66.82
56821;BME280;42702;50.178;20.992;2022-12-29T00:21:27;99430.14;;;2.37;66.85
56821;BME280;42702;50.178;20.992;2022-12-29T00:24:17;99430.83;;;2.37;66.59
56821;BME280;42702;50.178;20.992;2022-12-29T00:27:04;99429.06;;;2.36;66.77
56821;BME280;42702;50.178;20.992;2022-12-29T00:29:56;99433.92;;;2.37;66.61
56821;BME280;42702;50.178;20.992;2022-12-29T00:32:44;99434.00;;;2.46;66.56
56821;BME280;42702;50.178;20.992;2022-12-29T00:35:39;99431.23;;;2.51;66.66
56821;BME280;42702;50.178;20.992;2022-12-29T00:38:10;99434.86;;;2.52;66.57
56821;BME280;42702;50.178;20.992;2022-12-29T00:40:58;99435.80;;;2.54;66.66
56821;BME280;42702;50.178;20.992;2022-12-29T00:43:45;99439.98;;;2.56;66.55
56821;BME280;42702;50.178;20.992;2022-12-29T00:46:33;99438.45;;;2.57;66.53
56821;BME280;42702;50.178;20.992;2022-12-29T00:49:02;99432.63;;;2.58;66.63
56821;BME280;42702;50.178;20.992;2022-12-29T00:51:49;99435.75;;;2.59;66.61
56821;BME280;42702;50.178;20.992;2022-12-29T00:54:17;99434.36;;;2.59;66.25
56821;BME280;42702;50.178;20.992;2022-12-29T00:56:50;99434.20;;;2.58;66.51
56821;BME280;42702;50.178;20.992;2022-12-29T00:59:19;99433.63;;;2.57;66.11
56821;BME280;42702;50.178;20.992;2022-12-29T01:01:48;99435.14;;;2.56;66.50
56821;BME280;42702;50.178;20.992;2022-12-29T01:04:16;99428.94;;;2.55;66.39
56821;BME280;42702;50.178;20.992;2022-12-29T01:06:45;99432.50;;;2.53;66.61
56821;BME280;42702;50.178;20.992;2022-12-29T01:09:16;99431.23;;;2.51;66.53
56821;BME280;42702;50.178;20.992;2022-12-29T01:12:04;99427.81;;;2.52;66.86
56821;BME280;42702;50.178;20.992;2022-12-29T01:14:34;99428.98;;;2.51;66.24
56821;BME280;42702;50.178;20.992;2022-12-29T01:17:04;99420.31;;;2.48;66.56
56821;BME280;42702;50.178;20.992;2022-12-29T01:19:33;99420.05;;;2.45;66.52
56821;BME280;42702;50.178;20.992;2022-12-29T01:22:01;99413.85;;;2.44;66.57
56821;BME280;42702;50.178;20.992;2022-12-29T01:24:29;99409.52;;;2.44;66.56
56821;BME280;42702;50.178;20.992;2022-12-29T01:26:57;99411.61;;;2.44;66.66
56821;BME280;42702;50.178;20.992;2022-12-29T01:29:25;99406.80;;;2.44;66.46
56821;BME280;42702;50.178;20.992;2022-12-29T01:31:53;99407.65;;;2.44;66.92
56821;BME280;42702;50.178;20.992;2022-12-29T01:34:23;99414.19;;;2.44;66.82
56821;BME280;42702;50.178;20.992;2022-12-29T01:36:51;99418.39;;;2.47;66.71
56821;BME280;42702;50.178;20.992;2022-12-29T01:39:19;99411.73;;;2.55;66.72
56821;BME280;42702;50.178;20.992;2022-12-29T01:41:47;99410.31;;;2.60;66.44
56821;BME280;42702;50.178;20.992;2022-12-29T01:44:54;99406.55;;;2.60;66.63
56821;BME280;42702;50.178;20.992;2022-12-29T01:47:47;99401.63;;;2.63;66.68
56821;BME280;42702;50.178;20.992;2022-12-29T01:50:24;99401.36;;;2.65;66.41
56821;BME280;42702;50.178;20.992;2022-12-29T01:53:03;99403.09;;;2.65;66.67
56821;BME280;42702;50.178;20.992;2022-12-29T01:55:48;99398.52;;;2.68;66.83
56821;BME280;42702;50.178;20.992;2022-12-29T01:58:20;99388.86;;;2.68;66.40
56821;BME280;42702;50.178;20.992;2022-12-29T02:00:50;99394.02;;;2.68;66.70
56821;BME280;42702;50.178;20.992;2022-12-29T02:03:19;99392.65;;;2.68;66.51
56821;BME280;42702;50.178;20.992;2022-12-29T02:05:54;99389.56;;;2.69;66.42
56821;BME280;42702;50.178;20.992;2022-12-29T02:08:26;99382.54;;;2.69;66.65
56821;BME280;42702;50.178;20.992;2022-12-29T02:10:58;99377.18;;;2.69;66.59
56821;BME280;42702;50.178;20.992;2022-12-29T02:13:28;99372.36;;;2.68;66.33
56821;BME280;42702;50.178;20.992;2022-12-29T02:21:53;99374.20;;;2.66;66.56
56821;BME280;42702;50.178;20.992;2022-12-29T02:32:41;99373.73;;;2.62;66.51
56821;BME280;42702;50.178;20.992;2022-12-29T02:38:05;99377.18;;;2.62;66.42
56821;BME280;42702;50.178;20.992;2022-12-29T02:44:03;99378.39;;;2.62;66.75
56821;BME280;42702;50.178;20.992;2022-12-29T02:46:16;99376.86;;;2.63;66.61
56821;BME280;42702;50.178;20.992;2022-12-29T02:49:16;99379.98;;;2.63;66.71
56821;BME280;42702;50.178;20.992;2022-12-29T02:51:56;99379.54;;;2.66;66.41
56821;BME280;42702;50.178;20.992;2022-12-29T02:54:26;99371.80;;;2.73;66.68
56821;BME280;42702;50.178;20.992;2022-12-29T02:59:54;99364.44;;;2.75;66.25
56821;BME280;42702;50.178;20.992;2022-12-29T03:11:04;99364.74;;;2.79;66.01
56821;BME280;42702;50.178;20.992;2022-12-29T03:13:52;99362.20;;;2.81;65.86
56821;BME280;42702;50.178;20.992;2022-12-29T03:16:48;99352.41;;;2.82;65.95
56821;BME280;42702;50.178;20.992;2022-12-29T03:19:46;99351.92;;;2.82;65.97
56821;BME280;42702;50.178;20.992;2022-12-29T03:22:21;99348.85;;;2.84;66.31
56821;BME280;42702;50.178;20.992;2022-12-29T03:25:08;99348.89;;;2.85;66.01
56821;BME280;42702;50.178;20.992;2022-12-29T03:27:42;99345.95;;;2.85;65.90
56821;BME280;42702;50.178;20.992;2022-12-29T03:30:13;99348.75;;;2.87;65.90
56821;BME280;42702;50.178;20.992;2022-12-29T03:32:48;99345.48;;;2.87;66.27
56821;BME280;42702;50.178;20.992;2022-12-29T03:35:21;99343.43;;;2.88;66.17
56821;BME280;42702;50.178;20.992;2022-12-29T03:38:08;99339.29;;;2.87;65.68
56821;BME280;42702;50.178;20.992;2022-12-29T03:40:42;99349.25;;;2.86;65.88
56821;BME280;42702;50.178;20.992;2022-12-29T03:43:12;99350.49;;;2.88;66.15
56821;BME280;42702;50.178;20.992;2022-12-29T03:45:41;99351.90;;;2.89;65.87
56821;BME280;42702;50.178;20.992;2022-12-29T03:48:10;99349.52;;;2.90;66.07
56821;BME280;42702;50.178;20.992;2022-12-29T03:50:39;99344.38;;;2.91;65.75
56821;BME280;42702;50.178;20.992;2022-12-29T03:53:07;99347.52;;;2.92;65.87
56821;BME280;42702;50.178;20.992;2022-12-29T03:55:35;99348.23;;;2.94;65.83
56821;BME280;42702;50.178;20.992;2022-12-29T03:58:03;99339.14;;;2.95;65.68
56821;BME280;42702;50.178;20.992;2022-12-29T04:01:07;99331.77;;;2.96;65.50
56821;BME280;42702;50.178;20.992;2022-12-29T04:03:36;99326.60;;;2.96;65.52
56821;BME280;42702;50.178;20.992;2022-12-29T04:06:05;99325.78;;;2.97;65.70
56821;BME280;42702;50.178;20.992;2022-12-29T04:08:43;99327.02;;;2.98;65.28
56821;BME280;42702;50.178;20.992;2022-12-29T04:11:11;99322.92;;;3.00;65.89
56821;BME280;42702;50.178;20.992;2022-12-29T04:13:41;99321.58;;;3.01;65.83
56821;BME280;42702;50.178;20.992;2022-12-29T04:16:13;99321.75;;;3.01;65.50
56821;BME280;42702;50.178;20.992;2022-12-29T04:18:42;99324.70;;;3.02;65.64
56821;BME280;42702;50.178;20.992;2022-12-29T04:21:10;99327.68;;;3.04;65.60
56821;BME280;42702;50.178;20.992;2022-12-29T04:23:41;99326.19;;;3.13;65.48
56821;BME280;42702;50.178;20.992;2022-12-29T04:26:10;99323.35;;;3.16;65.67
56821;BME280;42702;50.178;20.992;2022-12-29T04:28:49;99319.41;;;3.18;65.58
56821;BME280;42702;50.178;20.992;2022-12-29T04:31:49;99322.73;;;3.20;65.70
56821;BME280;42702;50.178;20.992;2022-12-29T04:34:18;99325.55;;;3.23;65.53
56821;BME280;42702;50.178;20.992;2022-12-29T04:36:47;99321.65;;;3.25;65.38
56821;BME280;42702;50.178;20.992;2022-12-29T04:39:15;99319.61;;;3.27;65.27
56821;BME280;42702;50.178;20.992;2022-12-29T04:41:45;99318.08;;;3.27;65.05
56821;BME280;42702;50.178;20.992;2022-12-29T04:44:18;99313.07;;;3.26;65.49
56821;BME280;42702;50.178;20.992;2022-12-29T04:46:46;99316.15;;;3.26;65.30
56821;BME280;42702;50.178;20.992;2022-12-29T04:49:29;99317.33;;;3.24;65.29
56821;BME280;42702;50.178;20.992;2022-12-29T04:52:08;99320.77;;;3.24;65.39
56821;BME280;42702;50.178;20.992;2022-12-29T04:54:37;99319.69;;;3.23;65.50
56821;BME280;42702;50.178;20.992;2022-12-29T04:57:10;99314.36;;;3.22;65.33
56821;BME280;42702;50.178;20.992;2022-12-29T04:59:39;99311.26;;;3.22;65.42
56821;BME280;42702;50.178;20.992;2022-12-29T05:02:08;99304.00;;;3.21;65.52
56821;BME280;42702;50.178;20.992;2022-12-29T05:04:37;99311.73;;;3.21;65.43
56821;BME280;42702;50.178;20.992;2022-12-29T05:07:05;99313.10;;;3.21;65.16
56821;BME280;42702;50.178;20.992;2022-12-29T05:09:34;99306.04;;;3.20;65.22
56821;BME280;42702;50.178;20.992;2022-12-29T05:12:03;99311.52;;;3.19;65.38
56821;BME280;42702;50.178;20.992;2022-12-29T05:14:32;99311.67;;;3.19;65.58
56821;BME280;42702;50.178;20.992;2022-12-29T05:17:00;99311.69;;;3.18;65.47
56821;BME280;42702;50.178;20.992;2022-12-29T05:19:29;99300.96;;;3.17;65.34
56821;BME280;42702;50.178;20.992;2022-12-29T05:21:57;99294.73;;;3.16;65.58
56821;BME280;42702;50.178;20.992;2022-12-29T05:24:25;99292.00;;;3.16;65.45
56821;BME280;42702;50.178;20.992;2022-12-29T05:26:55;99292.64;;;3.15;65.65
56821;BME280;42702;50.178;20.992;2022-12-29T05:29:52;99292.98;;;3.15;65.61
56821;BME280;42702;50.178;20.992;2022-12-29T05:32:20;99297.12;;;3.15;65.49
56821;BME280;42702;50.178;20.992;2022-12-29T05:34:48;99298.81;;;3.14;65.55
56821;BME280;42702;50.178;20.992;2022-12-29T05:37:18;99294.09;;;3.18;65.48
56821;BME280;42702;50.178;20.992;2022-12-29T05:39:46;99299.77;;;3.24;64.99
56821;BME280;42702;50.178;20.992;2022-12-29T05:42:14;99297.70;;;3.25;65.28
56821;BME280;42702;50.178;20.992;2022-12-29T05:44:52;99300.31;;;3.26;65.58
56821;BME280;42702;50.178;20.992;2022-12-29T05:47:35;99290.02;;;3.27;65.40
56821;BME280;42702;50.178;20.992;2022-12-29T05:50:22;99291.27;;;3.29;65.44
56821;BME280;42702;50.178;20.992;2022-12-29T05:53:08;99284.91;;;3.31;65.60
56821;BME280;42702;50.178;20.992;2022-12-29T05:55:37;99285.06;;;3.29;65.29
56821;BME280;42702;50.178;20.992;2022-12-29T05:58:14;99280.92;;;3.29;65.31
56821;BME280;42702;50.178;20.992;2022-12-29T06:00:44;99275.41;;;3.29;65.39
56821;BME280;42702;50.178;20.992;2022-12-29T06:03:12;99280.23;;;3.29;65.46
56821;BME280;42702;50.178;20.992;2022-12-29T06:05:41;99282.45;;;3.28;65.54
56821;BME280;42702;50.178;20.992;2022-12-29T06:08:09;99272.08;;;3.27;65.30
56821;BME280;42702;50.178;20.992;2022-12-29T06:10:38;99266.52;;;3.24;65.22
56821;BME280;42702;50.178;20.992;2022-12-29T06:13:06;99259.60;;;3.23;65.27
56821;BME280;42702;50.178;20.992;2022-12-29T06:15:41;99260.26;;;3.22;65.47
56821;BME280;42702;50.178;20.992;2022-12-29T06:18:09;99259.52;;;3.20;65.31
56821;BME280;42702;50.178;20.992;2022-12-29T06:20:46;99258.47;;;3.19;65.52
56821;BME280;42702;50.178;20.992;2022-12-29T06:23:16;99262.39;;;3.17;65.39
56821;BME280;42702;50.178;20.992;2022-12-29T06:25:47;99265.30;;;3.16;65.59
56821;BME280;42702;50.178;20.992;2022-12-29T06:28:16;99266.98;;;3.15;65.63
56821;BME280;42702;50.178;20.992;2022-12-29T06:30:45;99261.45;;;3.14;65.43
56821;BME280;42702;50.178;20.992;2022-12-29T06:33:14;99262.80;;;3.12;65.37
56821;BME280;42702;50.178;20.992;2022-12-29T06:35:43;99264.52;;;3.12;65.71
56821;BME280;42702;50.178;20.992;2022-12-29T06:38:11;99266.75;;;3.12;65.56
56821;BME280;42702;50.178;20.992;2022-12-29T06:40:41;99259.69;;;3.12;65.29
56821;BME280;42702;50.178;20.992;2022-12-29T06:43:15;99260.69;;;3.11;65.63
56821;BME280;42702;50.178;20.992;2022-12-29T06:46:01;99269.63;;;3.10;65.79
56821;BME280;42702;50.178;20.992;2022-12-29T06:48:29;99270.98;;;3.16;65.68
56821;BME280;42702;50.178;20.992;2022-12-29T06:50:57;99270.59;;;3.22;65.64
56821;BME280;42702;50.178;20.992;2022-12-29T06:53:25;99275.08;;;3.22;65.94
56821;BME280;42702;50.178;20.992;2022-12-29T06:55:53;99272.16;;;3.22;65.81
56821;BME280;42702;50.178;20.992;2022-12-29T06:58:22;99274.27;;;3.24;65.82
56821;BME280;42702;50.178;20.992;2022-12-29T07:00:50;99270.15;;;3.25;65.78
56821;BME280;42702;50.178;20.992;2022-12-29T07:03:18;99263.64;;;3.27;65.88
56821;BME280;42702;50.178;20.992;2022-12-29T07:05:46;99264.18;;;3.28;65.95
56821;BME280;42702;50.178;20.992;2022-12-29T07:08:14;99259.73;;;3.29;66.07
56821;BME280;42702;50.178;20.992;2022-12-29T07:10:43;99261.98;;;3.30;65.88
56821;BME280;42702;50.178;20.992;2022-12-29T07:13:12;99260.48;;;3.32;65.58
56821;BME280;42702;50.178;20.992;2022-12-29T07:15:40;99265.52;;;3.33;65.72
56821;BME280;42702;50.178;20.992;2022-12-29T07:18:08;99258.66;;;3.34;65.90
56821;BME280;42702;50.178;20.992;2022-12-29T07:20:36;99253.14;;;3.34;65.92
56821;BME280;42702;50.178;20.992;2022-12-29T07:23:04;99248.88;;;3.36;65.80
56821;BME280;42702;50.178;20.992;2022-12-29T07:25:32;99250.75;;;3.35;65.98
56821;BME280;42702;50.178;20.992;2022-12-29T07:28:00;99251.47;;;3.36;65.96
56821;BME280;42702;50.178;20.992;2022-12-29T07:30:28;99248.20;;;3.36;65.62
56821;BME280;42702;50.178;20.992;2022-12-29T07:32:57;99243.24;;;3.39;66.21
56821;BME280;42702;50.178;20.992;2022-12-29T07:35:25;99244.66;;;3.40;65.68
56821;BME280;42702;50.178;20.992;2022-12-29T07:37:53;99242.42;;;3.41;66.20
56821;BME280;42702;50.178;20.992;2022-12-29T07:40:21;99237.77;;;3.41;66.19
56821;BME280;42702;50.178;20.992;2022-12-29T07:42:49;99244.55;;;3.43;66.06
56821;BME280;42702;50.178;20.992;2022-12-29T07:45:18;99252.73;;;3.47;66.18
56821;BME280;42702;50.178;20.992;2022-12-29T07:48:04;99255.21;;;3.58;66.30
56821;BME280;42702;50.178;20.992;2022-12-29T07:50:36;99254.67;;;3.65;66.08
56821;BME280;42702;50.178;20.992;2022-12-29T07:53:04;99256.45;;;3.67;66.14
56821;BME280;42702;50.178;20.992;2022-12-29T07:55:32;99261.87;;;3.71;66.20
56821;BME280;42702;50.178;20.992;2022-12-29T07:58:00;99265.75;;;3.75;65.79
56821;BME280;42702;50.178;20.992;2022-12-29T08:00:28;99266.84;;;3.78;65.97
56821;BME280;42702;50.178;20.992;2022-12-29T08:02:59;99259.81;;;3.79;65.98
56821;BME280;42702;50.178;20.992;2022-12-29T08:05:27;99257.25;;;3.81;66.14
56821;BME280;42702;50.178;20.992;2022-12-29T08:07:55;99249.70;;;3.83;66.39
56821;BME280;42702;50.178;20.992;2022-12-29T08:10:23;99250.27;;;3.85;65.94
56821;BME280;42702;50.178;20.992;2022-12-29T08:12:54;99238.05;;;3.85;66.36
56821;BME280;42702;50.178;20.992;2022-12-29T08:15:22;99235.44;;;3.85;66.13
56821;BME280;42702;50.178;20.992;2022-12-29T08:18:00;99229.23;;;3.85;66.35
56821;BME280;42702;50.178;20.992;2022-12-29T08:20:29;99225.77;;;3.84;66.24
56821;BME280;42702;50.178;20.992;2022-12-29T08:22:57;99224.07;;;3.85;66.19
56821;BME280;42702;50.178;20.992;2022-12-29T08:25:25;99229.42;;;3.85;66.21
56821;BME280;42702;50.178;20.992;2022-12-29T08:27:53;99237.72;;;3.87;66.36
56821;BME280;42702;50.178;20.992;2022-12-29T08:30:21;99234.27;;;3.87;66.47
56821;BME280;42702;50.178;20.992;2022-12-29T08:32:49;99229.83;;;3.88;66.30
56821;BME280;42702;50.178;20.992;2022-12-29T08:35:17;99222.61;;;3.90;66.44
56821;BME280;42702;50.178;20.992;2022-12-29T08:37:45;99219.88;;;3.92;66.32
56821;BME280;42702;50.178;20.992;2022-12-29T08:40:13;99225.45;;;3.94;66.50
56821;BME280;42702;50.178;20.992;2022-12-29T08:42:41;99221.52;;;3.95;66.54
56821;BME280;42702;50.178;20.992;2022-12-29T08:45:10;99219.64;;;3.96;66.53
56821;BME280;42702;50.178;20.992;2022-12-29T08:47:38;99223.48;;;3.99;66.27
56821;BME280;42702;50.178;20.992;2022-12-29T08:50:06;99230.40;;;4.09;66.18
56821;BME280;42702;50.178;20.992;2022-12-29T08:52:34;99230.27;;;4.12;66.55
56821;BME280;42702;50.178;20.992;2022-12-29T08:55:03;99237.52;;;4.12;66.39
56821;BME280;42702;50.178;20.992;2022-12-29T08:57:31;99240.16;;;4.14;66.16
56821;BME280;42702;50.178;20.992;2022-12-29T09:00:06;99240.39;;;4.16;66.33
56821;BME280;42702;50.178;20.992;2022-12-29T09:02:34;99242.48;;;4.17;66.33
56821;BME280;42702;50.178;20.992;2022-12-29T09:05:03;99245.59;;;4.18;66.24
56821;BME280;42702;50.178;20.992;2022-12-29T09:07:32;99246.52;;;4.21;66.33
56821;BME280;42702;50.178;20.992;2022-12-29T09:10:00;99247.08;;;4.23;66.45
56821;BME280;42702;50.178;20.992;2022-12-29T09:12:29;99245.73;;;4.26;66.30
56821;BME280;42702;50.178;20.992;2022-12-29T09:15:03;99244.42;;;4.30;66.30
56821;BME280;42702;50.178;20.992;2022-12-29T09:17:32;99239.53;;;4.35;66.29
56821;BME280;42702;50.178;20.992;2022-12-29T09:20:15;99229.97;;;4.41;66.37
56821;BME280;42702;50.178;20.992;2022-12-29T09:22:44;99223.34;;;4.47;66.37
56821;BME280;42702;50.178;20.992;2022-12-29T09:25:13;99216.38;;;4.53;66.46
56821;BME280;42702;50.178;20.992;2022-12-29T09:27:41;99218.57;;;4.60;66.54
56821;BME280;42702;50.178;20.992;2022-12-29T09:30:11;99221.98;;;4.67;66.32
56821;BME280;42702;50.178;20.992;2022-12-29T09:32:40;99217.42;;;4.74;66.28
56821;BME280;42702;50.178;20.992;2022-12-29T09:35:13;99213.39;;;4.82;66.47
56821;BME280;42702;50.178;20.992;2022-12-29T09:37:41;99211.25;;;4.88;66.24
56821;BME280;42702;50.178;20.992;2022-12-29T09:40:29;99207.22;;;4.95;65.94
56821;BME280;42702;50.178;20.992;2022-12-29T09:48:41;99203.26;;;5.29;65.70
56821;BME280;42702;50.178;20.992;2022-12-29T09:51:15;99206.98;;;5.37;65.45
56821;BME280;42702;50.178;20.992;2022-12-29T09:53:51;99211.91;;;5.43;65.11
56821;BME280;42702;50.178;20.992;2022-12-29T09:56:23;99209.20;;;5.47;65.32
56821;BME280;42702;50.178;20.992;2022-12-29T09:59:09;99205.98;;;5.52;64.92
56821;BME280;42702;50.178;20.992;2022-12-29T10:04:18;99203.27;;;5.57;64.83
56821;BME280;42702;50.178;20.992;2022-12-29T10:10:06;99196.27;;;5.63;64.89
56821;BME280;42702;50.178;20.992;2022-12-29T10:16:11;99198.34;;;5.63;64.73
56821;BME280;42702;50.178;20.992;2022-12-29T10:18:56;99195.80;;;5.67;64.89
56821;BME280;42702;50.178;20.992;2022-12-29T10:21:56;99197.09;;;5.74;64.71
56821;BME280;42702;50.178;20.992;2022-12-29T10:24:28;99193.55;;;5.81;64.81
56821;BME280;42702;50.178;20.992;2022-12-29T10:26:59;99186.73;;;5.89;64.88
56821;BME280;42702;50.178;20.992;2022-12-29T10:29:32;99179.09;;;5.99;64.91
56821;BME280;42702;50.178;20.992;2022-12-29T10:32:06;99179.36;;;6.08;64.91
56821;BME280;42702;50.178;20.992;2022-12-29T10:34:42;99170.80;;;6.17;64.59
56821;BME280;42702;50.178;20.992;2022-12-29T10:40:38;99172.90;;;6.37;64.46
56821;BME280;42702;50.178;20.992;2022-12-29T10:43:28;99177.64;;;6.43;64.43
56821;BME280;42702;50.178;20.992;2022-12-29T10:46:02;99168.02;;;6.51;64.24
56821;BME280;42702;50.178;20.992;2022-12-29T10:48:34;99165.11;;;6.57;64.33
56821;BME280;42702;50.178;20.992;2022-12-29T10:51:04;99165.87;;;6.63;64.22
56821;BME280;42702;50.178;20.992;2022-12-29T10:53:38;99168.33;;;6.68;63.59
56821;BME280;42702;50.178;20.992;2022-12-29T10:56:21;99166.98;;;6.74;63.73
56821;BME280;42702;50.178;20.992;2022-12-29T10:58:55;99166.32;;;6.77;63.08
56821;BME280;42702;50.178;20.992;2022-12-29T11:01:31;99156.15;;;6.82;63.61
56821;BME280;42702;50.178;20.992;2022-12-29T11:04:08;99148.57;;;6.90;63.78
56821;BME280;42702;50.178;20.992;2022-12-29T11:06:43;99146.71;;;6.97;64.06
56821;BME280;42702;50.178;20.992;2022-12-29T11:09:16;99140.52;;;7.04;63.72
56821;BME280;42702;50.178;20.992;2022-12-29T11:11:46;99134.50;;;7.12;63.76
56821;BME280;42702;50.178;20.992;2022-12-29T11:14:19;99132.46;;;7.18;63.77
56821;BME280;42702;50.178;20.992;2022-12-29T11:16:58;99131.29;;;7.26;63.61
56821;BME280;42702;50.178;20.992;2022-12-29T11:19:29;99140.52;;;7.33;63.24
56821;BME280;42702;50.178;20.992;2022-12-29T11:22:21;99142.44;;;7.38;63.14
56821;BME280;42702;50.178;20.992;2022-12-29T11:24:51;99145.59;;;7.42;63.07
56821;BME280;42702;50.178;20.992;2022-12-29T11:27:23;99145.78;;;7.46;62.96
56821;BME280;42702;50.178;20.992;2022-12-29T11:29:53;99144.73;;;7.46;62.61
56821;BME280;42702;50.178;20.992;2022-12-29T11:32:25;99144.58;;;7.47;62.80
56821;BME280;42702;50.178;20.992;2022-12-29T11:34:57;99142.48;;;7.48;62.88
56821;BME280;42702;50.178;20.992;2022-12-29T11:42:35;99138.70;;;7.55;62.75
56821;BME280;42702;50.178;20.992;2022-12-29T11:45:15;99134.39;;;7.58;62.66
56821;BME280;42702;50.178;20.992;2022-12-29T11:47:47;99123.98;;;7.60;62.89
56821;BME280;42702;50.178;20.992;2022-12-29T11:50:22;99123.80;;;7.61;62.82
56821;BME280;42702;50.178;20.992;2022-12-29T11:53:01;99129.02;;;7.62;62.64
56821;BME280;42702;50.178;20.992;2022-12-29T11:55:31;99132.33;;;7.64;62.43
56821;BME280;42702;50.178;20.992;2022-12-29T11:58:02;99126.07;;;7.62;62.33
56821;BME280;42702;50.178;20.992;2022-12-29T12:00:34;99126.42;;;7.62;62.78
56821;BME280;42702;50.178;20.992;2022-12-29T12:03:13;99121.39;;;7.59;62.45
56821;BME280;42702;50.178;20.992;2022-12-29T12:05:55;99124.14;;;7.56;62.53
56821;BME280;42702;50.178;20.992;2022-12-29T12:09:01;99119.10;;;7.54;62.46
56821;BME280;42702;50.178;20.992;2022-12-29T12:11:42;99111.81;;;7.52;62.61
56821;BME280;42702;50.178;20.992;2022-12-29T12:23:14;99114.23;;;7.46;62.75
56821;BME280;42702;50.178;20.992;2022-12-29T12:25:56;99117.52;;;7.45;62.70
56821;BME280;42702;50.178;20.992;2022-12-29T12:28:34;99116.11;;;7.44;62.95
56821;BME280;42702;50.178;20.992;2022-12-29T12:31:12;99107.61;;;7.43;63.00
56821;BME280;42702;50.178;20.992;2022-12-29T12:33:47;99105.36;;;7.42;62.98
56821;BME280;42702;50.178;20.992;2022-12-29T12:53:58;99103.31;;;7.49;63.41
56821;BME280;42702;50.178;20.992;2022-12-29T12:59:30;99101.42;;;7.52;62.77
56821;BME280;42702;50.178;20.992;2022-12-29T13:10:35;99107.67;;;7.55;62.80
56821;BME280;42702;50.178;20.992;2022-12-29T13:19:02;99110.63;;;7.58;62.68
56821;BME280;42702;50.178;20.992;2022-12-29T13:28:09;99118.44;;;7.61;62.95
56821;BME280;42702;50.178;20.992;2022-12-29T13:33:44;99119.48;;;7.58;62.74
56821;BME280;42702;50.178;20.992;2022-12-29T13:36:32;99117.03;;;7.57;62.59
56821;BME280;42702;50.178;20.992;2022-12-29T13:39:15;99115.81;;;7.55;63.19
56821;BME280;42702;50.178;20.992;2022-12-29T13:41:53;99113.21;;;7.52;62.78
56821;BME280;42702;50.178;20.992;2022-12-29T13:44:28;99118.23;;;7.50;62.85
56821;BME280;42702;50.178;20.992;2022-12-29T13:49:44;99122.54;;;7.45;62.72
56821;BME280;42702;50.178;20.992;2022-12-29T13:55:00;99131.52;;;7.39;62.88
56821;BME280;42702;50.178;20.992;2022-12-29T14:03:46;99136.14;;;7.25;62.69
56821;BME280;42702;50.178;20.992;2022-12-29T14:06:35;99135.93;;;7.20;62.79
56821;BME280;42702;50.178;20.992;2022-12-29T14:09:47;99133.30;;;7.16;62.80
56821;BME280;42702;50.178;20.992;2022-12-29T14:15:15;99138.10;;;7.05;63.03
56821;BME280;42702;50.178;20.992;2022-12-29T14:18:02;99136.87;;;7.01;63.55
56821;BME280;42702;50.178;20.992;2022-12-29T14:20:32;99138.39;;;6.96;63.20
56821;BME280;42702;50.178;20.992;2022-12-29T14:26:16;99139.02;;;6.86;63.44
56821;BME280;42702;50.178;20.992;2022-12-29T14:28:47;99135.86;;;6.82;63.30
56821;BME280;42702;50.178;20.992;2022-12-29T14:36:35;99138.71;;;6.69;63.63
56821;BME280;42702;50.178;20.992;2022-12-29T14:39:43;99138.52;;;6.65;63.33
56821;BME280;42702;50.178;20.992;2022-12-29T14:42:19;99141.07;;;6.60;63.64
56821;BME280;42702;50.178;20.992;2022-12-29T14:44:51;99138.63;;;6.56;63.63
56821;BME280;42702;50.178;20.992;2022-12-29T14:49:53;99140.98;;;6.50;63.77
56821;BME280;42702;50.178;20.992;2022-12-29T14:52:27;99139.77;;;6.47;63.79
56821;BME280;42702;50.178;20.992;2022-12-29T14:54:58;99140.61;;;6.45;63.74
56821;BME280;42702;50.178;20.992;2022-12-29T14:57:40;99138.41;;;6.51;63.85
56821;BME280;42702;50.178;20.992;2022-12-29T15:00:25;99143.60;;;6.52;63.58
56821;BME280;42702;50.178;20.992;2022-12-29T15:03:06;99142.38;;;6.50;63.97
56821;BME280;42702;50.178;20.992;2022-12-29T15:05:52;99143.58;;;6.49;63.95
56821;BME280;42702;50.178;20.992;2022-12-29T15:08:24;99144.27;;;6.47;64.25
56821;BME280;42702;50.178;20.992;2022-12-29T15:10:56;99140.61;;;6.46;63.91
56821;BME280;42702;50.178;20.992;2022-12-29T15:13:35;99142.52;;;6.45;64.03
56821;BME280;42702;50.178;20.992;2022-12-29T15:16:04;99145.63;;;6.44;64.15
56821;BME280;42702;50.178;20.992;2022-12-29T15:18:33;99148.20;;;6.43;64.14
56821;BME280;42702;50.178;20.992;2022-12-29T15:21:03;99148.54;;;6.41;64.17
56821;BME280;42702;50.178;20.992;2022-12-29T15:23:34;99146.09;;;6.39;64.12
56821;BME280;42702;50.178;20.992;2022-12-29T15:26:07;99146.08;;;6.36;64.21
56821;BME280;42702;50.178;20.992;2022-12-29T15:28:39;99142.23;;;6.34;64.28
56821;BME280;42702;50.178;20.992;2022-12-29T15:31:16;99144.29;;;6.32;64.62
56821;BME280;42702;50.178;20.992;2022-12-29T15:34:02;99144.09;;;6.27;64.58
56821;BME280;42702;50.178;20.992;2022-12-29T15:36:38;99145.79;;;6.25;64.19
56821;BME280;42702;50.178;20.992;2022-12-29T15:39:27;99146.98;;;6.22;64.61
56821;BME280;42702;50.178;20.992;2022-12-29T15:44:41;99148.83;;;6.17;64.73
56821;BME280;42702;50.178;20.992;2022-12-29T15:49:47;99154.11;;;6.11;65.16
56821;BME280;42702;50.178;20.992;2022-12-29T15:52:21;99153.92;;;6.08;64.87
56821;BME280;42702;50.178;20.992;2022-12-29T15:54:52;99157.35;;;6.05;65.09